createdAt,value
2022-07-29T00:00:17.276Z,23.7
2022-07-29T00:01:19.985Z,23.7
2022-07-29T00:02:22.670Z,23.7
2022-07-29T00:03:25.508Z,23.7
2022-07-29T00:04:28.405Z,23.7
2022-07-29T00:05:31.548Z,23.7
2022-07-29T00:06:34.249Z,23.7
2022-07-29T00:07:36.896Z,23.7
2022-07-29T00:08:39.576Z,23.7
2022-07-29T00:09:43.101Z,23.7
2022-07-29T00:10:54.397Z,23.7
2022-07-29T00:11:56.317Z,23.7
2022-07-29T00:12:58.175Z,23.7
2022-07-29T00:13:59.991Z,23.7
2022-07-29T00:15:01.971Z,23.7
2022-07-29T00:16:04.398Z,23.7
2022-07-29T00:17:07.302Z,23.7
2022-07-29T00:18:10.353Z,23.7
2022-07-29T00:19:12.235Z,23.7
2022-07-29T00:20:16.944Z,23.7
2022-07-29T00:21:18.820Z,23.7
2022-07-29T00:22:23.508Z,23.7
2022-07-29T00:23:25.356Z,23.7
2022-07-29T00:24:27.209Z,23.7
2022-07-29T00:25:29.039Z,23.7
2022-07-29T00:26:32.032Z,23.7
2022-07-29T00:27:33.938Z,23.7
2022-07-29T00:28:35.831Z,23.8
2022-07-29T00:29:37.685Z,23.7
2022-07-29T00:30:39.580Z,23.7
2022-07-29T00:31:41.538Z,23.7
2022-07-29T00:32:43.810Z,23.8
2022-07-29T00:33:45.605Z,23.8
2022-07-29T00:34:47.448Z,23.8
2022-07-29T00:35:49.303Z,23.8
2022-07-29T00:36:51.154Z,23.8
2022-07-29T00:37:53.002Z,23.7
2022-07-29T00:38:54.901Z,23.8
2022-07-29T00:39:59.563Z,23.8
2022-07-29T00:41:01.458Z,23.8
2022-07-29T00:42:03.372Z,23.8
2022-07-29T00:43:05.217Z,23.8
2022-07-29T00:44:07.149Z,23.8
2022-07-29T00:45:08.993Z,23.8
2022-07-29T00:46:10.833Z,23.8
2022-07-29T00:47:12.924Z,23.8
2022-07-29T00:48:14.777Z,23.8
2022-07-29T00:49:16.699Z,23.8
2022-07-29T00:50:18.913Z,23.8
2022-07-29T00:51:20.737Z,23.8
2022-07-29T00:52:22.584Z,23.8
2022-07-29T00:53:24.405Z,23.8
2022-07-29T00:54:28.538Z,23.8
2022-07-29T00:55:30.396Z,23.8
2022-07-29T00:56:32.268Z,23.8
2022-07-29T00:57:34.086Z,23.8
2022-07-29T00:58:35.951Z,23.8
2022-07-29T00:59:37.781Z,23.8
2022-07-29T01:00:39.623Z,23.8
2022-07-29T01:01:41.733Z,23.8
2022-07-29T01:02:43.952Z,23.8
2022-07-29T01:03:45.636Z,23.8
2022-07-29T01:04:47.330Z,23.8
2022-07-29T01:05:50.213Z,23.8
2022-07-29T01:06:53.603Z,23.8
2022-07-29T01:07:55.266Z,23.8
2022-07-29T01:08:56.814Z,23.8
2022-07-29T01:09:58.412Z,23.8
2022-07-29T01:11:00.020Z,23.8
2022-07-29T01:12:01.594Z,23.8
2022-07-29T01:13:03.261Z,23.8
2022-07-29T01:14:10.209Z,23.8
2022-07-29T01:15:11.892Z,23.8
2022-07-29T01:16:13.494Z,23.8
2022-07-29T01:17:15.533Z,23.8
2022-07-29T01:18:18.138Z,23.8
2022-07-29T01:19:25.368Z,23.8
2022-07-29T01:20:31.405Z,23.8
2022-07-29T01:21:33.795Z,23.8
2022-07-29T01:22:35.579Z,23.8
2022-07-29T01:23:37.167Z,23.8
2022-07-29T01:24:38.748Z,23.9
2022-07-29T01:25:40.395Z,23.9
2022-07-29T01:26:41.984Z,23.9
2022-07-29T01:27:43.596Z,23.8
2022-07-29T01:28:47.378Z,23.8
2022-07-29T01:29:49.251Z,23.8
2022-07-29T01:30:51.521Z,23.8
2022-07-29T01:31:58.889Z,23.8
2022-07-29T01:33:03.094Z,23.9
2022-07-29T01:34:05.322Z,23.9
2022-07-29T01:35:06.997Z,23.9
2022-07-29T01:36:08.786Z,23.9
2022-07-29T01:37:10.405Z,23.8
2022-07-29T01:38:12.166Z,23.8
2022-07-29T01:39:13.880Z,23.8
2022-07-29T01:40:15.414Z,23.8
2022-07-29T01:41:16.964Z,23.8
2022-07-29T01:42:18.603Z,23.8
2022-07-29T01:43:20.212Z,23.8
2022-07-29T01:44:21.925Z,23.8
2022-07-29T01:45:23.500Z,23.8
2022-07-29T01:46:25.259Z,23.8
2022-07-29T01:47:27.354Z,23.8
2022-07-29T01:48:29.100Z,23.8
2022-07-29T01:49:30.669Z,23.8
2022-07-29T01:50:32.276Z,23.8
2022-07-29T01:51:33.853Z,23.8
2022-07-29T01:52:35.447Z,23.8
2022-07-29T01:53:37.685Z,23.8
2022-07-29T01:54:39.990Z,23.8
2022-07-29T01:55:41.533Z,23.8
2022-07-29T01:56:43.094Z,23.8
2022-07-29T01:57:44.698Z,23.8
2022-07-29T01:58:46.325Z,23.8
2022-07-29T01:59:48.023Z,23.8
2022-07-29T02:00:49.759Z,23.8
2022-07-29T02:01:51.388Z,23.8
2022-07-29T02:02:56.769Z,23.8
2022-07-29T02:03:58.372Z,23.8
2022-07-29T02:05:00.133Z,23.8
2022-07-29T02:06:02.354Z,23.8
2022-07-29T02:07:03.974Z,23.8
2022-07-29T02:08:05.603Z,23.8
2022-07-29T02:09:07.171Z,23.8
2022-07-29T02:10:10.181Z,23.8
2022-07-29T02:11:11.815Z,23.8
2022-07-29T02:12:13.487Z,23.8
2022-07-29T02:13:15.033Z,23.8
2022-07-29T02:14:16.910Z,23.8
2022-07-29T02:15:20.169Z,23.8
2022-07-29T02:16:21.843Z,23.8
2022-07-29T02:17:24.046Z,23.8
2022-07-29T02:18:25.806Z,23.8
2022-07-29T02:19:27.415Z,23.8
2022-07-29T02:20:28.955Z,23.8
2022-07-29T02:21:30.673Z,23.8
2022-07-29T02:22:32.216Z,23.8
2022-07-29T02:23:44.286Z,23.8
2022-07-29T02:24:53.613Z,23.8
2022-07-29T02:25:55.215Z,23.8
2022-07-29T02:26:56.872Z,23.8
2022-07-29T02:27:58.465Z,23.8
2022-07-29T02:29:00.143Z,23.8
2022-07-29T02:30:01.889Z,23.8
2022-07-29T02:31:03.701Z,23.8
2022-07-29T02:32:05.771Z,23.8
2022-07-29T02:33:07.342Z,23.8
2022-07-29T02:34:08.885Z,23.8
2022-07-29T02:35:10.551Z,23.8
2022-07-29T02:36:12.163Z,23.8
2022-07-29T02:37:13.888Z,23.8
2022-07-29T02:38:15.664Z,23.8
2022-07-29T02:39:17.290Z,23.8
2022-07-29T02:40:19.087Z,23.8
2022-07-29T02:41:21.569Z,23.8
2022-07-29T02:42:23.208Z,23.8
2022-07-29T02:43:24.813Z,23.8
2022-07-29T02:44:29.011Z,23.8
2022-07-29T02:45:36.422Z,23.8
2022-07-29T02:46:38.098Z,23.8
2022-07-29T02:47:41.679Z,23.8
2022-07-29T02:48:43.989Z,23.8
2022-07-29T02:49:45.995Z,23.8
2022-07-29T02:50:47.706Z,23.8
2022-07-29T02:51:49.360Z,23.8
2022-07-29T02:52:50.905Z,23.8
2022-07-29T02:53:58.422Z,23.8
2022-07-29T02:55:00.189Z,23.8
2022-07-29T02:56:01.830Z,23.8
2022-07-29T02:57:03.350Z,23.8
2022-07-29T02:58:04.990Z,23.8
2022-07-29T02:59:06.739Z,23.8
2022-07-29T03:00:08.444Z,23.8
2022-07-29T03:01:10.128Z,23.8
2022-07-29T03:02:12.238Z,23.8
2022-07-29T03:03:14.351Z,23.8
2022-07-29T03:04:16.287Z,23.8
2022-07-29T03:05:20.019Z,23.7
2022-07-29T03:06:28.315Z,23.7
2022-07-29T03:07:40.522Z,23.8
2022-07-29T03:08:42.129Z,23.8
2022-07-29T03:09:43.733Z,23.8
2022-07-29T03:10:45.334Z,23.8
2022-07-29T03:11:50.335Z,23.8
2022-07-29T03:12:52.815Z,23.8
2022-07-29T03:13:54.503Z,23.8
2022-07-29T03:14:56.429Z,23.8
2022-07-29T03:15:58.097Z,23.8
2022-07-29T03:17:00.342Z,23.8
2022-07-29T03:18:02.027Z,23.8
2022-07-29T03:19:03.656Z,23.8
2022-07-29T03:20:05.269Z,23.8
2022-07-29T03:21:06.837Z,23.8
2022-07-29T03:22:08.640Z,23.8
2022-07-29T03:23:10.177Z,23.8
2022-07-29T03:24:11.798Z,23.8
2022-07-29T03:25:13.530Z,23.8
2022-07-29T03:26:15.423Z,23.8
2022-07-29T03:27:17.070Z,23.8
2022-07-29T03:28:18.597Z,23.8
2022-07-29T03:29:20.825Z,23.8
2022-07-29T03:30:22.896Z,23.8
2022-07-29T03:31:24.858Z,23.8
2022-07-29T03:32:30.362Z,23.8
2022-07-29T03:33:32.467Z,23.8
2022-07-29T03:34:34.111Z,23.8
2022-07-29T03:35:35.688Z,23.8
2022-07-29T03:36:37.299Z,23.8
2022-07-29T03:37:38.851Z,23.7
2022-07-29T03:38:40.489Z,23.8
2022-07-29T03:39:42.656Z,23.8
2022-07-29T03:40:44.412Z,23.8
2022-07-29T03:41:46.086Z,23.7
2022-07-29T03:42:47.754Z,23.7
2022-07-29T03:43:49.987Z,23.7
2022-07-29T03:44:51.736Z,23.7
2022-07-29T03:45:53.350Z,23.7
2022-07-29T03:46:55.200Z,23.7
2022-07-29T03:48:00.539Z,23.7
2022-07-29T03:49:03.025Z,23.7
2022-07-29T03:50:05.054Z,23.7
2022-07-29T03:51:11.935Z,23.7
2022-07-29T03:52:13.566Z,23.7
2022-07-29T03:53:15.156Z,23.7
2022-07-29T03:54:17.067Z,23.7
2022-07-29T03:55:20.266Z,23.7
2022-07-29T03:56:21.974Z,23.8
2022-07-29T03:57:23.573Z,23.8
2022-07-29T03:58:25.332Z,23.8
2022-07-29T03:59:26.949Z,23.8
2022-07-29T04:00:28.578Z,23.8
2022-07-29T04:01:30.370Z,23.8
2022-07-29T04:02:32.347Z,23.8
2022-07-29T04:03:34.395Z,23.8
2022-07-29T04:04:36.466Z,23.8
2022-07-29T04:05:38.050Z,23.8
2022-07-29T04:06:39.615Z,23.8
2022-07-29T04:07:41.194Z,23.8
2022-07-29T04:08:42.891Z,23.8
2022-07-29T04:10:45.549Z,23.8
2022-07-29T04:12:02.769Z,23.9
2022-07-29T04:13:06.084Z,23.9
2022-07-29T04:14:07.640Z,23.9
2022-07-29T04:15:09.251Z,23.9
2022-07-29T04:16:10.882Z,23.9
2022-07-29T04:17:12.736Z,23.9
2022-07-29T04:18:14.279Z,23.9
2022-07-29T04:19:15.831Z,24
2022-07-29T04:20:17.436Z,24
2022-07-29T04:21:19.022Z,24
2022-07-29T04:22:20.634Z,24
2022-07-29T04:23:28.853Z,24
2022-07-29T04:24:30.559Z,24
2022-07-29T04:25:32.369Z,24
2022-07-29T04:26:34.162Z,23.9
2022-07-29T04:27:35.930Z,23.9
2022-07-29T04:28:37.505Z,23.9
2022-07-29T04:29:56.457Z,23.9
2022-07-29T04:30:59.326Z,23.9
2022-07-29T04:32:01.330Z,23.9
2022-07-29T04:33:02.928Z,23.9
2022-07-29T04:34:04.556Z,23.9
2022-07-29T04:35:06.233Z,24
2022-07-29T04:36:11.644Z,24
2022-07-29T04:37:31.613Z,24
2022-07-29T04:38:33.244Z,24
2022-07-29T04:39:34.786Z,24
2022-07-29T04:40:38.558Z,24.1
2022-07-29T04:41:42.557Z,24.1
2022-07-29T04:42:45.075Z,24
2022-07-29T04:43:50.935Z,24
2022-07-29T04:44:53.583Z,23.9
2022-07-29T04:45:55.203Z,23.9
2022-07-29T04:46:57.130Z,24
2022-07-29T04:47:58.727Z,24
2022-07-29T04:49:00.517Z,24
2022-07-29T04:50:02.675Z,24
2022-07-29T04:51:04.272Z,23.9
2022-07-29T04:52:05.893Z,23.9
2022-07-29T04:53:07.549Z,23.9
2022-07-29T04:54:09.108Z,23.9
2022-07-29T04:55:10.867Z,24
2022-07-29T04:56:12.504Z,23.9
2022-07-29T04:57:14.141Z,24
2022-07-29T04:58:15.760Z,24
2022-07-29T04:59:17.423Z,24
2022-07-29T05:00:19.006Z,24
2022-07-29T05:01:20.776Z,24
2022-07-29T05:02:23.104Z,24
2022-07-29T05:03:25.196Z,24.1
2022-07-29T05:04:26.779Z,24.1
2022-07-29T05:05:28.366Z,24.1
2022-07-29T05:06:30.019Z,24.1
2022-07-29T05:07:31.859Z,24.1
2022-07-29T05:08:33.539Z,24.1
2022-07-29T05:09:35.207Z,24.1
2022-07-29T05:10:36.758Z,24.1
2022-07-29T05:11:38.407Z,24.2
2022-07-29T05:12:40.098Z,24.2
2022-07-29T05:13:45.591Z,24.2
2022-07-29T05:14:48.984Z,24.2
2022-07-29T05:15:50.748Z,24.2
2022-07-29T05:16:52.825Z,24.2
2022-07-29T05:17:54.474Z,24.2
2022-07-29T05:18:56.124Z,24.2
2022-07-29T05:19:57.706Z,24.2
2022-07-29T05:20:59.412Z,24.2
2022-07-29T05:22:00.912Z,24.3
2022-07-29T05:23:02.542Z,24.3
2022-07-29T05:24:04.227Z,24.3
2022-07-29T05:25:09.083Z,24.4
2022-07-29T05:26:10.954Z,24.4
2022-07-29T05:27:12.746Z,24.4
2022-07-29T05:28:14.503Z,24.4
2022-07-29T05:29:43.445Z,24.4
2022-07-29T05:30:47.663Z,24.5
2022-07-29T05:31:49.830Z,24.5
2022-07-29T05:32:51.513Z,24.5
2022-07-29T05:33:53.147Z,24.5
2022-07-29T05:34:54.832Z,24.5
2022-07-29T05:36:00.257Z,24.5
2022-07-29T05:37:02.795Z,24.6
2022-07-29T05:38:04.388Z,24.6
2022-07-29T05:39:06.007Z,24.6
2022-07-29T05:40:07.563Z,24.6
2022-07-29T05:41:09.102Z,24.6
2022-07-29T05:42:10.789Z,24.6
2022-07-29T05:43:12.493Z,24.6
2022-07-29T05:44:14.655Z,24.6
2022-07-29T05:45:18.001Z,24.7
2022-07-29T05:46:20.304Z,24.7
2022-07-29T05:47:22.326Z,24.7
2022-07-29T05:48:24.074Z,24.7
2022-07-29T05:49:27.401Z,24.7
2022-07-29T05:50:29.636Z,24.7
2022-07-29T05:51:31.431Z,24.7
2022-07-29T05:52:33.210Z,24.8
2022-07-29T05:53:34.815Z,24.8
2022-07-29T05:54:36.501Z,24.8
2022-07-29T05:55:38.091Z,24.9
2022-07-29T05:56:41.063Z,24.9
2022-07-29T05:57:42.832Z,24.9
2022-07-29T05:58:44.387Z,24.9
2022-07-29T05:59:46.112Z,24.8
2022-07-29T06:00:47.914Z,24.8
2022-07-29T06:01:49.734Z,24.8
2022-07-29T06:02:51.598Z,24.8
2022-07-29T06:03:53.267Z,24.8
2022-07-29T06:04:55.246Z,24.8
2022-07-29T06:05:57.351Z,24.8
2022-07-29T06:06:59.049Z,24.8
2022-07-29T06:08:00.784Z,24.8
2022-07-29T06:09:11.563Z,24.8
2022-07-29T06:10:15.833Z,24.8
2022-07-29T06:11:17.379Z,24.8
2022-07-29T06:12:18.993Z,24.7
2022-07-29T06:13:20.541Z,24.7
2022-07-29T06:14:22.178Z,24.6
2022-07-29T06:15:24.034Z,24.6
2022-07-29T06:16:30.061Z,24.6
2022-07-29T06:17:32.368Z,24.7
2022-07-29T06:18:33.941Z,24.7
2022-07-29T06:19:35.523Z,24.7
2022-07-29T06:20:37.233Z,24.8
2022-07-29T06:21:41.941Z,24.8
2022-07-29T06:22:43.756Z,24.8
2022-07-29T06:23:45.389Z,24.8
2022-07-29T06:24:47.073Z,24.8
2022-07-29T06:25:48.673Z,24.8
2022-07-29T06:26:50.323Z,24.8
2022-07-29T06:27:52.072Z,24.8
2022-07-29T06:28:53.615Z,24.8
2022-07-29T06:29:55.260Z,24.8
2022-07-29T06:30:57.004Z,24.8
2022-07-29T06:31:58.856Z,24.8
2022-07-29T06:33:00.429Z,24.8
2022-07-29T06:34:02.098Z,24.8
2022-07-29T06:35:24.758Z,24.9
2022-07-29T06:36:56.471Z,24.9
2022-07-29T06:37:59.671Z,24.9
2022-07-29T06:39:02.790Z,24.9
2022-07-29T06:40:05.529Z,24.9
2022-07-29T06:41:07.228Z,24.9
2022-07-29T06:42:08.864Z,24.9
2022-07-29T06:43:10.457Z,24.9
2022-07-29T06:44:12.131Z,24.9
2022-07-29T06:45:14.716Z,24.9
2022-07-29T06:46:16.316Z,24.9
2022-07-29T06:47:18.423Z,24.9
2022-07-29T06:48:20.019Z,24.9
2022-07-29T06:49:21.724Z,24.9
2022-07-29T06:50:23.717Z,24.9
2022-07-29T06:51:26.775Z,24.9
2022-07-29T06:52:28.329Z,24.9
2022-07-29T06:53:30.031Z,24.9
2022-07-29T06:54:31.677Z,24.9
2022-07-29T06:55:33.223Z,24.9
2022-07-29T06:56:38.786Z,24.9
2022-07-29T06:57:42.140Z,25
2022-07-29T06:58:43.692Z,25
2022-07-29T06:59:45.319Z,25
2022-07-29T07:00:46.954Z,25
2022-07-29T07:01:48.982Z,25
2022-07-29T07:02:51.043Z,25
2022-07-29T07:03:53.270Z,25
2022-07-29T07:04:55.089Z,25
2022-07-29T07:05:56.720Z,25
2022-07-29T07:06:58.336Z,25
2022-07-29T07:07:59.868Z,25
2022-07-29T07:09:01.518Z,25
2022-07-29T07:10:03.060Z,24.9
2022-07-29T07:11:04.805Z,24.9
2022-07-29T07:12:06.440Z,24.8
2022-07-29T07:13:08.248Z,24.8
2022-07-29T07:14:09.835Z,24.8
2022-07-29T07:15:11.571Z,24.8
2022-07-29T07:16:13.242Z,24.7
2022-07-29T07:17:15.379Z,24.7
2022-07-29T07:18:16.987Z,24.8
2022-07-29T07:19:18.681Z,24.8
2022-07-29T07:20:20.235Z,24.8
2022-07-29T07:21:22.020Z,24.9
2022-07-29T07:22:23.812Z,24.9
2022-07-29T07:23:25.416Z,24.9
2022-07-29T07:24:27.189Z,24.9
2022-07-29T07:25:28.767Z,24.9
2022-07-29T07:26:30.328Z,24.9
2022-07-29T07:27:31.982Z,24.9
2022-07-29T07:28:33.877Z,24.9
2022-07-29T07:29:38.385Z,24.9
2022-07-29T07:30:40.048Z,24.9
2022-07-29T07:31:41.782Z,24.9
2022-07-29T07:32:43.616Z,25
2022-07-29T07:33:45.158Z,25
2022-07-29T07:34:46.701Z,25
2022-07-29T07:35:48.234Z,25
2022-07-29T07:36:50.018Z,25
2022-07-29T07:37:51.856Z,25
2022-07-29T07:38:53.434Z,25
2022-07-29T07:39:55.088Z,25
2022-07-29T07:40:56.793Z,25
2022-07-29T07:41:58.577Z,25
2022-07-29T07:43:00.351Z,25
2022-07-29T07:44:02.166Z,25
2022-07-29T07:45:13.361Z,25
2022-07-29T07:46:18.377Z,25.1
2022-07-29T07:47:20.567Z,25.1
2022-07-29T07:48:25.259Z,25.1
2022-07-29T07:49:26.959Z,25.1
2022-07-29T07:50:29.097Z,25.1
2022-07-29T07:51:31.193Z,25.1
2022-07-29T07:52:33.071Z,25.1
2022-07-29T07:53:34.767Z,25.1
2022-07-29T07:54:36.699Z,25.1
2022-07-29T07:56:07.908Z,25.1
2022-07-29T07:57:14.487Z,25.2
2022-07-29T07:58:16.088Z,25.2
2022-07-29T07:59:17.898Z,25.2
2022-07-29T08:00:19.443Z,25.2
2022-07-29T08:01:25.690Z,25.2
2022-07-29T08:02:27.907Z,25.2
2022-07-29T08:03:29.952Z,25.1
2022-07-29T08:04:31.610Z,25.1
2022-07-29T08:05:33.165Z,25.1
2022-07-29T08:06:40.689Z,25.1
2022-07-29T08:07:42.257Z,25.1
2022-07-29T08:08:43.880Z,25.1
2022-07-29T08:09:45.602Z,25.1
2022-07-29T08:10:47.308Z,25.1
2022-07-29T08:11:51.630Z,25.1
2022-07-29T08:12:54.240Z,25.1
2022-07-29T08:13:55.911Z,25.1
2022-07-29T08:14:57.678Z,25
2022-07-29T08:15:59.567Z,25
2022-07-29T08:17:01.243Z,24.9
2022-07-29T08:18:08.342Z,24.9
2022-07-29T08:19:10.688Z,24.9
2022-07-29T08:20:12.281Z,24.9
2022-07-29T08:21:14.974Z,24.9
2022-07-29T08:22:17.347Z,25
2022-07-29T08:23:19.114Z,25
2022-07-29T08:24:20.819Z,25
2022-07-29T08:25:22.421Z,25
2022-07-29T08:26:24.156Z,25
2022-07-29T08:27:43.654Z,25.1
2022-07-29T08:28:46.204Z,25.1
2022-07-29T08:29:48.191Z,25.1
2022-07-29T08:30:49.784Z,25.1
2022-07-29T08:31:53.527Z,25.2
2022-07-29T08:32:57.041Z,25.2
2022-07-29T08:33:58.999Z,25.2
2022-07-29T08:35:00.578Z,25.2
2022-07-29T08:36:02.114Z,25.2
2022-07-29T08:37:04.514Z,25.2
2022-07-29T08:38:06.278Z,25.2
2022-07-29T08:39:07.959Z,25.2
2022-07-29T08:40:09.624Z,25.1
2022-07-29T08:41:11.319Z,25.2
2022-07-29T08:42:12.974Z,25.2
2022-07-29T08:43:14.751Z,25.1
2022-07-29T08:44:16.599Z,25.2
2022-07-29T08:45:32.926Z,25.2
2022-07-29T08:46:35.051Z,25.2
2022-07-29T08:47:36.849Z,25.2
2022-07-29T08:48:38.524Z,25.2
2022-07-29T08:49:40.569Z,25.2
2022-07-29T08:50:42.281Z,25.2
2022-07-29T08:51:48.791Z,25.2
2022-07-29T08:52:52.346Z,25.2
2022-07-29T08:54:01.667Z,25.2
2022-07-29T08:55:03.423Z,25.2
2022-07-29T08:56:05.180Z,25.2
2022-07-29T08:57:06.926Z,25.2
2022-07-29T08:58:10.722Z,25.2
2022-07-29T08:59:17.408Z,25.2
2022-07-29T09:00:24.153Z,25.2
2022-07-29T09:01:35.418Z,25.1
2022-07-29T09:02:46.994Z,25
2022-07-29T09:03:50.041Z,24.9
2022-07-29T09:04:52.278Z,24.9
2022-07-29T09:05:53.952Z,25
2022-07-29T09:06:55.818Z,25
2022-07-29T09:07:57.534Z,25
2022-07-29T09:08:59.310Z,25
2022-07-29T09:10:01.087Z,25.1
2022-07-29T09:11:03.795Z,25.1
2022-07-29T09:12:07.407Z,25.1
2022-07-29T09:13:09.114Z,25.1
2022-07-29T09:14:10.672Z,25.2
2022-07-29T09:15:12.258Z,25.1
2022-07-29T09:16:22.464Z,25.1
2022-07-29T09:18:03.112Z,25.2
2022-07-29T09:19:04.769Z,25.2
2022-07-29T09:20:06.635Z,25.2
2022-07-29T09:21:08.295Z,25.2
2022-07-29T09:22:09.961Z,25.1
2022-07-29T09:23:11.555Z,25.1
2022-07-29T09:24:26.475Z,25.1
2022-07-29T09:25:28.049Z,25.1
2022-07-29T09:26:29.634Z,25.1
2022-07-29T09:27:31.228Z,25.1
2022-07-29T09:28:32.847Z,25.1
2022-07-29T09:29:36.362Z,25.1
2022-07-29T09:30:41.329Z,25.1
2022-07-29T09:31:43.036Z,25.1
2022-07-29T09:32:45.140Z,25.1
2022-07-29T09:33:46.799Z,25.1
2022-07-29T09:34:48.377Z,25
2022-07-29T09:35:56.641Z,25
2022-07-29T09:36:59.994Z,25
2022-07-29T09:38:01.641Z,25
2022-07-29T09:39:03.507Z,25
2022-07-29T09:40:07.913Z,25
2022-07-29T09:41:13.509Z,25
2022-07-29T09:42:16.002Z,25
2022-07-29T09:43:18.530Z,25
2022-07-29T09:44:21.366Z,25
2022-07-29T09:45:22.967Z,25
2022-07-29T09:46:24.636Z,25
2022-07-29T09:47:26.713Z,25
2022-07-29T09:48:28.624Z,25
2022-07-29T09:49:30.391Z,25
2022-07-29T09:50:32.102Z,25
2022-07-29T09:51:37.987Z,25
2022-07-29T09:52:40.587Z,25.1
2022-07-29T09:53:42.285Z,25.1
2022-07-29T09:54:43.976Z,25.1
2022-07-29T09:55:46.443Z,25.1
2022-07-29T09:56:48.020Z,25.1
2022-07-29T09:57:49.678Z,25.1
2022-07-29T09:58:51.279Z,25.1
2022-07-29T09:59:52.812Z,25.2
2022-07-29T10:00:54.405Z,25.2
2022-07-29T10:01:56.686Z,25.2
2022-07-29T10:03:00.254Z,25.2
2022-07-29T10:04:02.400Z,25.2
2022-07-29T10:05:04.052Z,25.2
2022-07-29T10:06:05.689Z,25.2
2022-07-29T10:07:07.330Z,25.2
2022-07-29T10:08:09.004Z,25.2
2022-07-29T10:09:11.758Z,25.2
2022-07-29T10:10:13.377Z,25.1
2022-07-29T10:11:15.046Z,25.1
2022-07-29T10:12:16.688Z,25.1
2022-07-29T10:13:18.278Z,25.1
2022-07-29T10:14:19.967Z,25.1
2022-07-29T10:15:21.567Z,25.1
2022-07-29T10:16:23.229Z,25.1
2022-07-29T10:17:25.282Z,25.1
2022-07-29T10:18:26.839Z,25.1
2022-07-29T10:19:28.384Z,25.1
2022-07-29T10:20:30.082Z,25.1
2022-07-29T10:21:35.102Z,25.1
2022-07-29T10:22:54.151Z,25.1
2022-07-29T10:23:56.254Z,25.1
2022-07-29T10:25:03.327Z,25
2022-07-29T10:26:05.016Z,25
2022-07-29T10:27:06.595Z,25
2022-07-29T10:28:08.138Z,25
2022-07-29T10:29:14.496Z,25
2022-07-29T10:30:17.271Z,25
2022-07-29T10:31:18.910Z,25
2022-07-29T10:32:20.803Z,25
2022-07-29T10:33:22.351Z,25
2022-07-29T10:34:23.994Z,25
2022-07-29T10:35:25.772Z,25
2022-07-29T10:36:27.564Z,24.9
2022-07-29T10:37:29.169Z,24.9
2022-07-29T10:38:48.110Z,25
2022-07-29T10:39:50.073Z,24.9
2022-07-29T10:40:51.790Z,25
2022-07-29T10:41:59.467Z,25
2022-07-29T10:43:01.292Z,25
2022-07-29T10:44:02.943Z,25
2022-07-29T10:45:04.765Z,25
2022-07-29T10:46:07.542Z,25
2022-07-29T10:47:12.184Z,25
2022-07-29T10:48:15.213Z,25
2022-07-29T10:49:17.269Z,25
2022-07-29T10:50:20.178Z,25
2022-07-29T10:51:21.798Z,25
2022-07-29T10:52:26.522Z,25
2022-07-29T10:53:33.707Z,25
2022-07-29T10:54:36.633Z,25.1
2022-07-29T10:55:38.610Z,25.1
2022-07-29T10:56:40.253Z,25.1
2022-07-29T10:57:52.846Z,25.1
2022-07-29T10:58:59.177Z,25.1
2022-07-29T11:00:01.390Z,25.2
2022-07-29T11:01:06.051Z,25.2
2022-07-29T11:02:28.112Z,25.2
2022-07-29T11:19:52.146Z,25.6
2022-07-29T11:20:54.170Z,25.5
2022-07-29T11:21:58.441Z,25.4
2022-07-29T11:23:00.265Z,25.4
2022-07-29T11:24:02.538Z,25.3
2022-07-29T11:25:04.314Z,25.3
2022-07-29T11:26:09.209Z,25.2
2022-07-29T11:27:10.861Z,25.2
2022-07-29T11:28:16.694Z,25.2
2022-07-29T11:29:27.444Z,25.2
2022-07-29T11:30:30.703Z,25.2
2022-07-29T11:31:32.271Z,25.1
2022-07-29T11:32:36.094Z,25.1
2022-07-29T11:33:54.943Z,25.1
2022-07-29T11:35:16.969Z,25.1
2022-07-29T11:36:41.065Z,25.1
2022-07-29T11:37:45.824Z,25.1
2022-07-29T11:53:52.441Z,25.5
2022-07-29T11:54:57.632Z,25.5
2022-07-29T12:08:12.552Z,25.6
2022-07-29T12:09:16.592Z,25.6
2022-07-29T12:10:19.633Z,25.5
2022-07-29T12:11:34.750Z,25.5
2022-07-29T12:12:36.906Z,25.4
2022-07-29T12:13:39.921Z,25.4
2022-07-29T12:14:41.481Z,25.3
2022-07-29T12:15:45.798Z,25.3
2022-07-29T12:16:50.041Z,25.3
2022-07-29T12:17:53.016Z,25.2
2022-07-29T12:18:55.220Z,25.2
2022-07-29T12:19:56.802Z,25.2
2022-07-29T12:20:58.661Z,25.2
2022-07-29T12:22:05.610Z,25.1
2022-07-29T12:23:08.117Z,25.1
2022-07-29T12:24:11.461Z,25.1
2022-07-29T12:25:35.040Z,25.1
2022-07-29T12:26:36.844Z,25.2
2022-07-29T12:27:40.257Z,25.1
2022-07-29T12:28:42.340Z,25.1
2022-07-29T12:29:49.389Z,25.1
2022-07-29T12:30:52.210Z,25.1
2022-07-29T12:31:54.183Z,25.1
2022-07-29T12:33:01.008Z,25.1
2022-07-29T12:34:02.719Z,25.1
2022-07-29T12:35:04.442Z,25.1
2022-07-29T12:36:10.607Z,25.1
2022-07-29T12:37:19.572Z,25.1
2022-07-29T12:38:44.433Z,25.2
2022-07-29T12:39:46.219Z,25.2
2022-07-29T12:40:48.053Z,25.2
2022-07-29T12:41:49.599Z,25.2
2022-07-29T12:42:51.251Z,25.2
2022-07-29T12:43:52.965Z,25.2
2022-07-29T12:44:54.740Z,25.2
2022-07-29T12:45:56.296Z,25.2
2022-07-29T12:46:57.983Z,25.2
2022-07-29T12:47:59.984Z,25.2
2022-07-29T12:49:01.644Z,25.2
2022-07-29T12:50:06.143Z,25.2
2022-07-29T12:51:07.743Z,25.2
2022-07-29T12:52:09.321Z,25.2
2022-07-29T12:53:10.860Z,25.2
2022-07-29T12:54:12.589Z,25.2
2022-07-29T12:55:14.226Z,25.1
2022-07-29T12:56:33.446Z,25.1
2022-07-29T12:57:46.957Z,25.2
2022-07-29T12:58:51.245Z,25.2
2022-07-29T12:59:53.175Z,25.2
2022-07-29T13:00:57.770Z,25.2
2022-07-29T13:02:00.541Z,25.2
2022-07-29T13:03:03.461Z,25.2
2022-07-29T13:04:09.451Z,25.2
2022-07-29T13:05:11.360Z,25.2
2022-07-29T13:06:12.970Z,25.1
2022-07-29T13:07:14.685Z,25.1
2022-07-29T13:08:20.497Z,25.1
2022-07-29T13:09:24.770Z,25.1
2022-07-29T13:10:26.389Z,25.1
2022-07-29T13:11:27.990Z,25.1
2022-07-29T13:12:29.573Z,25.1
2022-07-29T13:13:31.229Z,25.1
2022-07-29T13:14:32.875Z,25.1
2022-07-29T13:15:34.447Z,25.1
2022-07-29T13:16:36.240Z,25.1
2022-07-29T13:17:38.409Z,25.1
2022-07-29T13:18:49.353Z,25.1
2022-07-29T13:19:50.888Z,25.1
2022-07-29T13:20:52.428Z,25.1
2022-07-29T13:21:54.068Z,25.1
2022-07-29T13:22:56.236Z,25.1
2022-07-29T13:23:57.907Z,25.1
2022-07-29T13:24:59.556Z,25.1
2022-07-29T13:26:01.270Z,25
2022-07-29T13:27:05.575Z,25.1
2022-07-29T13:28:07.371Z,25.1
2022-07-29T13:29:09.108Z,25.1
2022-07-29T13:30:10.727Z,25.1
2022-07-29T13:31:12.362Z,25.1
2022-07-29T13:32:14.551Z,25.1
2022-07-29T13:33:16.217Z,25.1
2022-07-29T13:34:18.003Z,25.1
2022-07-29T13:35:19.657Z,25.1
2022-07-29T13:36:21.240Z,25.1
2022-07-29T13:37:22.809Z,25.1
2022-07-29T13:38:30.959Z,25.2
2022-07-29T13:39:33.081Z,25.2
2022-07-29T13:40:34.634Z,25.2
2022-07-29T13:41:36.184Z,25.2
2022-07-29T13:42:38.779Z,25.2
2022-07-29T13:43:40.349Z,25.2
2022-07-29T13:44:42.530Z,25.2
2022-07-29T13:45:44.352Z,25.3
2022-07-29T13:46:46.369Z,25.3
2022-07-29T13:47:49.302Z,25.3
2022-07-29T13:48:51.179Z,25.2
2022-07-29T13:49:53.209Z,25.2
2022-07-29T13:50:54.853Z,25.2
2022-07-29T13:51:56.611Z,25.1
2022-07-29T13:52:59.396Z,25.2
2022-07-29T13:54:00.943Z,25.2
2022-07-29T13:55:03.922Z,25.2
2022-07-29T13:56:05.563Z,25.2
2022-07-29T13:57:09.877Z,25.2
2022-07-29T13:58:11.535Z,25.2
2022-07-29T13:59:13.230Z,25.2
2022-07-29T14:00:14.923Z,25.2
2022-07-29T14:01:16.580Z,25.2
2022-07-29T14:02:18.501Z,25.2
2022-07-29T14:03:20.355Z,25.2
2022-07-29T14:04:21.972Z,25.2
2022-07-29T14:05:23.951Z,25.2
2022-07-29T14:06:25.481Z,25.2
2022-07-29T14:07:27.026Z,25.2
2022-07-29T14:08:28.618Z,25.2
2022-07-29T14:09:30.225Z,25.2
2022-07-29T14:10:43.403Z,25.2
2022-07-29T14:11:45.190Z,25.2
2022-07-29T14:12:46.846Z,25.2
2022-07-29T14:13:48.486Z,25.2
2022-07-29T14:14:50.565Z,25.2
2022-07-29T14:15:52.186Z,25.2
2022-07-29T14:16:53.857Z,25.2
2022-07-29T14:17:55.996Z,25.2
2022-07-29T14:18:57.767Z,25.2
2022-07-29T14:19:59.397Z,25.1
2022-07-29T14:21:01.040Z,25.1
2022-07-29T14:22:02.769Z,25.1
2022-07-29T14:23:05.353Z,25.1
2022-07-29T14:24:09.279Z,25.1
2022-07-29T14:25:27.262Z,25.2
2022-07-29T14:26:28.899Z,25.2
2022-07-29T14:27:34.989Z,25.2
2022-07-29T14:28:41.996Z,25.3
2022-07-29T14:29:43.777Z,25.3
2022-07-29T14:30:45.447Z,25.3
2022-07-29T14:31:47.196Z,25.3
2022-07-29T14:32:49.327Z,25.3
2022-07-29T14:33:50.931Z,25.3
2022-07-29T14:34:52.466Z,25.2
2022-07-29T14:35:54.030Z,25.2
2022-07-29T14:37:02.824Z,25.2
2022-07-29T14:38:04.553Z,25.2
2022-07-29T14:39:06.193Z,25.2
2022-07-29T14:40:07.736Z,25.2
2022-07-29T14:41:09.624Z,25.2
2022-07-29T14:42:11.506Z,25.2
2022-07-29T14:43:14.780Z,25.2
2022-07-29T14:44:16.400Z,25.1
2022-07-29T14:45:17.961Z,25.1
2022-07-29T14:46:19.619Z,25.1
2022-07-29T14:47:21.471Z,25.1
2022-07-29T14:48:23.051Z,25.1
2022-07-29T14:49:24.712Z,25.1
2022-07-29T14:50:29.919Z,25.1